createdAt,value
2023-01-21T00:01:11.556Z,1.60
2023-01-21T00:03:39.145Z,1.50
2023-01-21T00:06:07.560Z,1.40
2023-01-21T00:08:34.940Z,1.40
2023-01-21T00:11:10.050Z,1.40
2023-01-21T00:13:38.003Z,1.40
2023-01-21T00:16:05.798Z,1.40
2023-01-21T00:18:34.468Z,1.50
2023-01-21T00:21:01.999Z,1.40
2023-01-21T00:23:29.351Z,1.40
2023-01-21T00:26:05.424Z,1.40
2023-01-21T00:28:34.653Z,1.50
2023-01-21T00:31:05.596Z,1.50
2023-01-21T00:33:33.758Z,1.60
2023-01-21T00:36:09.441Z,1.60
2023-01-21T00:38:37.147Z,1.60
2023-01-21T00:41:10.163Z,1.60
2023-01-21T00:43:38.007Z,1.70
2023-01-21T00:46:06.025Z,1.80
2023-01-21T00:48:33.526Z,1.80
2023-01-21T00:51:01.289Z,1.90
2023-01-21T00:53:32.994Z,1.90
2023-01-21T00:56:06.424Z,1.80
2023-01-21T00:58:35.037Z,1.70
2023-01-21T01:01:05.509Z,1.60
2023-01-21T01:03:33.741Z,1.40
2023-01-21T01:06:07.984Z,1.30
2023-01-21T01:08:35.413Z,1.30
2023-01-21T01:11:03.205Z,1.30
2023-01-21T01:13:30.905Z,1.40
2023-01-21T01:15:58.979Z,1.40
2023-01-21T01:18:27.939Z,1.40
2023-01-21T01:20:55.469Z,1.30
2023-01-21T01:23:22.961Z,1.20
2023-01-21T01:26:02.060Z,1.20
2023-01-21T01:28:30.449Z,1.30
2023-01-21T01:30:58.620Z,1.40
2023-01-21T01:33:26.933Z,1.30
2023-01-21T01:35:54.280Z,1.40
2023-01-21T01:38:23.284Z,1.40
2023-01-21T01:40:52.724Z,1.40
2023-01-21T01:43:28.498Z,1.40
2023-01-21T01:45:55.762Z,1.50
2023-01-21T01:48:30.071Z,1.50
2023-01-21T01:51:02.464Z,1.60
2023-01-21T01:53:31.836Z,1.50
2023-01-21T01:56:00.025Z,1.50
2023-01-21T01:58:29.285Z,1.50
2023-01-21T02:00:57.216Z,1.50
2023-01-21T02:03:45.544Z,1.40
2023-01-21T02:06:14.635Z,1.30
2023-01-21T02:08:44.440Z,1.40
2023-01-21T02:11:19.782Z,1.30
2023-01-21T02:13:51.812Z,1.30
2023-01-21T02:16:40.634Z,1.40
2023-01-21T02:19:32.781Z,1.50
2023-01-21T02:22:22.943Z,1.50
2023-01-21T02:25:08.546Z,1.60
2023-01-21T02:28:03.317Z,1.50
2023-01-21T02:30:59.421Z,1.50
2023-01-21T02:33:49.411Z,1.60
2023-01-21T02:36:57.971Z,1.60
2023-01-21T02:39:51.778Z,1.50
2023-01-21T02:42:42.289Z,1.60
2023-01-21T02:45:20.289Z,1.50
2023-01-21T02:48:08.946Z,1.50
2023-01-21T02:50:44.924Z,1.40
2023-01-21T02:53:30.865Z,1.40
2023-01-21T02:56:15.059Z,1.40
2023-01-21T02:58:51.828Z,1.40
2023-01-21T03:01:40.551Z,1.40
2023-01-21T03:04:11.033Z,1.40
2023-01-21T03:07:00.132Z,1.40
2023-01-21T03:09:29.956Z,1.30
2023-01-21T03:12:15.273Z,1.30
2023-01-21T03:15:09.916Z,1.20
2023-01-21T03:17:42.456Z,1.20
2023-01-21T03:20:51.949Z,1.20
2023-01-21T03:23:26.394Z,1.10
2023-01-21T03:25:55.933Z,1.10
2023-01-21T03:28:26.200Z,1.10
2023-01-21T03:31:19.492Z,1.20
2023-01-21T03:33:48.987Z,1.20
2023-01-21T03:36:33.669Z,1.20
2023-01-21T03:39:07.505Z,1.30
2023-01-21T03:41:39.787Z,1.30
2023-01-21T03:44:07.273Z,1.30
2023-01-21T03:46:42.084Z,1.30
2023-01-21T03:49:25.665Z,1.30
2023-01-21T03:51:56.367Z,1.30
2023-01-21T03:54:23.933Z,1.30
2023-01-21T03:56:51.267Z,1.30
2023-01-21T03:59:18.782Z,1.30
2023-01-21T04:01:46.089Z,1.30
2023-01-21T04:04:13.511Z,1.30
2023-01-21T04:06:40.904Z,1.30
2023-01-21T04:09:08.272Z,1.30
2023-01-21T04:11:35.570Z,1.40
2023-01-21T04:14:03.056Z,1.30
2023-01-21T04:16:31.157Z,1.30
2023-01-21T04:18:58.468Z,1.30
2023-01-21T04:21:25.821Z,1.30
2023-01-21T04:23:53.864Z,1.30
2023-01-21T04:26:21.206Z,1.40
2023-01-21T04:28:48.569Z,1.40
2023-01-21T04:31:15.860Z,1.40
2023-01-21T04:33:43.239Z,1.40
2023-01-21T04:36:10.610Z,1.40
2023-01-21T04:38:37.971Z,1.40
2023-01-21T04:41:05.414Z,1.50
2023-01-21T04:43:32.838Z,1.50
2023-01-21T04:46:00.215Z,1.50
2023-01-21T04:48:27.634Z,1.50
2023-01-21T04:50:54.998Z,1.50
2023-01-21T04:53:22.481Z,1.50
2023-01-21T04:55:52.818Z,1.50
2023-01-21T04:58:20.854Z,1.50
2023-01-21T05:00:48.110Z,1.40
2023-01-21T05:03:15.752Z,1.40
2023-01-21T05:05:42.965Z,1.50
2023-01-21T05:08:10.261Z,1.50
2023-01-21T05:10:37.545Z,1.40
2023-01-21T05:13:05.130Z,1.40
2023-01-21T05:15:32.880Z,1.40
2023-01-21T05:18:00.808Z,1.40
2023-01-21T05:20:28.059Z,1.40
2023-01-21T05:22:55.359Z,1.40
2023-01-21T05:25:22.561Z,1.30
2023-01-21T05:27:53.757Z,1.30
2023-01-21T05:30:21.492Z,1.30
2023-01-21T05:32:53.169Z,1.30
2023-01-21T05:35:22.036Z,1.30
2023-01-21T05:37:49.387Z,1.30
2023-01-21T05:40:17.952Z,1.20
2023-01-21T05:42:46.739Z,1.10
2023-01-21T05:45:14.568Z,1.10
2023-01-21T05:47:41.800Z,1.10
2023-01-21T05:50:10.200Z,0.90
2023-01-21T05:52:37.574Z,0.80
2023-01-21T05:55:05.278Z,0.90
2023-01-21T05:57:32.831Z,0.80
2023-01-21T06:00:00.166Z,0.70
2023-01-21T06:02:27.577Z,0.70
2023-01-21T06:04:54.928Z,0.70
2023-01-21T06:07:22.125Z,0.70
2023-01-21T06:09:49.350Z,0.60
2023-01-21T06:12:16.555Z,0.50
2023-01-21T06:14:43.891Z,0.40
2023-01-21T06:17:11.107Z,0.40
2023-01-21T06:19:38.403Z,0.40
2023-01-21T06:22:05.591Z,0.40
2023-01-21T06:24:32.882Z,0.50
2023-01-21T06:27:00.153Z,0.60
2023-01-21T06:29:27.435Z,0.60
2023-01-21T06:31:54.770Z,0.70
2023-01-21T06:34:22.141Z,0.80
2023-01-21T06:36:49.423Z,0.80
2023-01-21T06:39:16.683Z,0.80
2023-01-21T06:41:43.988Z,0.70
2023-01-21T06:44:11.252Z,0.70
2023-01-21T06:46:41.245Z,0.70
2023-01-21T06:49:10.791Z,0.70
2023-01-21T06:51:37.998Z,0.80
2023-01-21T06:54:05.415Z,0.80
2023-01-21T06:56:32.681Z,0.80
2023-01-21T06:58:59.955Z,0.90
2023-01-21T07:01:27.178Z,0.90
2023-01-21T07:03:54.593Z,0.90
2023-01-21T07:06:25.641Z,0.90
2023-01-21T07:08:52.950Z,1.00
2023-01-21T07:11:20.226Z,1.00
2023-01-21T07:13:47.727Z,1.00
2023-01-21T07:16:14.951Z,1.00
2023-01-21T07:18:42.287Z,1.00
2023-01-21T07:21:09.473Z,1.00
2023-01-21T07:23:36.998Z,1.00
2023-01-21T07:26:04.768Z,1.00
2023-01-21T07:28:32.288Z,1.00
2023-01-21T07:31:00.552Z,1.00
2023-01-21T07:33:28.802Z,1.00
2023-01-21T07:35:56.336Z,1.00
2023-01-21T07:38:23.709Z,1.00
2023-01-21T07:40:51.083Z,1.00
2023-01-21T07:43:18.321Z,1.00
2023-01-21T07:45:45.880Z,1.10
2023-01-21T07:48:13.385Z,1.10
2023-01-21T07:50:40.736Z,1.10
2023-01-21T07:53:08.035Z,1.00
2023-01-21T07:55:35.351Z,1.00
2023-01-21T07:58:04.006Z,1.00
2023-01-21T08:00:31.227Z,1.00
2023-01-21T08:02:59.195Z,1.00
2023-01-21T08:05:27.487Z,1.00
2023-01-21T08:07:57.792Z,1.00
2023-01-21T08:10:25.316Z,1.00
2023-01-21T08:12:52.565Z,1.10
2023-01-21T08:15:19.908Z,1.10
2023-01-21T08:17:48.927Z,1.10
2023-01-21T08:20:16.236Z,1.20
2023-01-21T08:22:43.515Z,1.10
2023-01-21T08:25:11.376Z,1.10
2023-01-21T08:27:38.841Z,1.20
2023-01-21T08:30:06.631Z,1.20
2023-01-21T08:32:33.935Z,1.20
2023-01-21T08:35:01.431Z,1.30
2023-01-21T08:37:28.727Z,1.30
2023-01-21T08:39:56.005Z,1.40
2023-01-21T08:42:23.257Z,1.40
2023-01-21T08:44:51.454Z,1.40
2023-01-21T08:47:18.931Z,1.50
2023-01-21T08:49:46.152Z,1.50
2023-01-21T08:52:13.688Z,1.60
2023-01-21T08:54:41.636Z,1.60
2023-01-21T08:57:09.615Z,1.70
2023-01-21T08:59:36.896Z,1.70
2023-01-21T09:02:04.404Z,1.70
2023-01-21T09:04:31.698Z,1.80
2023-01-21T09:09:39.993Z,1.70
2023-01-21T09:12:08.041Z,1.70
2023-01-21T09:14:35.275Z,1.70
2023-01-21T09:17:02.605Z,1.60
2023-01-21T09:19:29.806Z,1.60
2023-01-21T09:21:56.980Z,1.70
2023-01-21T09:24:25.280Z,1.70
2023-01-21T09:26:52.603Z,1.70
2023-01-21T09:29:19.890Z,1.80
2023-01-21T09:31:47.185Z,1.80
2023-01-21T09:34:14.494Z,1.80
2023-01-21T09:36:41.691Z,1.90
2023-01-21T09:39:09.139Z,1.90
2023-01-21T09:41:46.343Z,2.00
2023-01-21T09:44:22.769Z,2.10
2023-01-21T09:47:04.605Z,2.10
2023-01-21T09:49:39.867Z,2.20
2023-01-21T09:52:34.601Z,2.30
2023-01-21T09:55:02.870Z,2.40
2023-01-21T09:57:44.031Z,2.50
2023-01-21T10:00:46.327Z,2.60
2023-01-21T10:03:24.385Z,2.70
2023-01-21T10:06:13.580Z,2.80
2023-01-21T10:09:22.995Z,2.80
2023-01-21T10:12:05.366Z,2.90
2023-01-21T10:14:41.379Z,3.10
2023-01-21T10:17:37.180Z,3.10
2023-01-21T10:20:16.429Z,3.30
2023-01-21T10:22:51.412Z,3.40
2023-01-21T10:25:36.045Z,3.40
2023-01-21T10:28:10.880Z,3.60
2023-01-21T10:30:46.016Z,3.70
2023-01-21T10:33:19.286Z,3.70
2023-01-21T10:36:10.675Z,3.90
2023-01-21T10:39:01.733Z,4.00
2023-01-21T10:41:35.040Z,4.10
2023-01-21T10:44:06.262Z,4.30
2023-01-21T10:46:45.673Z,4.50
2023-01-21T10:49:48.812Z,4.70
2023-01-21T10:52:33.632Z,4.80
2023-01-21T10:55:22.133Z,5.00
2023-01-21T10:58:01.697Z,5.20
2023-01-21T11:00:36.406Z,5.30
2023-01-21T11:03:12.268Z,5.40
2023-01-21T11:08:23.933Z,5.70
2023-01-21T11:10:56.109Z,5.70
2023-01-21T11:13:24.251Z,5.80
2023-01-21T11:18:42.188Z,5.90
2023-01-21T11:21:20.435Z,6.10
2023-01-21T11:23:58.362Z,6.20
2023-01-21T11:26:34.210Z,6.20
2023-01-21T11:29:16.625Z,6.20
2023-01-21T11:32:13.497Z,6.30
2023-01-21T11:34:46.044Z,6.40
2023-01-21T11:37:25.815Z,6.40
2023-01-21T11:40:00.387Z,6.50
2023-01-21T11:42:27.985Z,6.50
2023-01-21T11:45:06.747Z,6.50
2023-01-21T11:47:49.178Z,6.70
2023-01-21T11:50:26.368Z,6.60
2023-01-21T11:53:11.646Z,6.40
2023-01-21T11:55:47.138Z,6.50
2023-01-21T11:58:34.208Z,6.50
2023-01-21T12:01:19.119Z,6.50
2023-01-21T12:03:56.893Z,6.60
2023-01-21T12:06:30.658Z,6.40
2023-01-21T12:09:02.744Z,6.50
2023-01-21T12:11:32.834Z,6.40
2023-01-21T12:14:29.871Z,6.40
2023-01-21T12:17:23.790Z,6.40
2023-01-21T12:19:59.903Z,6.40
2023-01-21T12:22:32.938Z,6.30
2023-01-21T12:25:41.049Z,6.30
2023-01-21T12:28:17.439Z,6.40
2023-01-21T12:31:00.829Z,6.30
2023-01-21T12:33:30.826Z,6.30
2023-01-21T12:36:13.618Z,6.40
2023-01-21T12:38:50.975Z,6.20
2023-01-21T12:41:28.136Z,5.90
2023-01-21T12:44:05.726Z,5.90
2023-01-21T12:46:41.115Z,5.90
2023-01-21T12:49:21.857Z,5.90
2023-01-21T12:54:49.183Z,5.90
2023-01-21T12:57:27.523Z,6.00
2023-01-21T13:00:13.433Z,6.00
2023-01-21T13:02:58.282Z,5.90
2023-01-21T13:05:46.152Z,5.90
2023-01-21T13:08:44.645Z,6.00
2023-01-21T13:11:19.568Z,6.00
2023-01-21T13:14:08.174Z,6.00
2023-01-21T13:16:47.431Z,6.00
2023-01-21T13:19:15.838Z,6.00
2023-01-21T13:21:52.019Z,6.10
2023-01-21T13:24:21.929Z,6.20
2023-01-21T13:27:44.637Z,6.30
2023-01-21T13:30:55.254Z,6.30
2023-01-21T13:33:25.624Z,6.10
2023-01-21T13:36:26.915Z,6.00
2023-01-21T13:39:17.589Z,6.00
2023-01-21T13:42:16.877Z,6.00
2023-01-21T13:45:20.736Z,5.90
2023-01-21T13:47:55.842Z,5.90
2023-01-21T13:53:45.785Z,6.10
2023-01-21T13:56:50.298Z,6.10
2023-01-21T13:59:43.101Z,6.10
2023-01-21T14:02:18.299Z,6.00
2023-01-21T14:05:13.512Z,6.00
2023-01-21T14:07:50.017Z,6.10
2023-01-21T14:10:29.285Z,5.90
2023-01-21T14:13:35.060Z,5.80
2023-01-21T14:16:07.930Z,5.80
2023-01-21T14:18:59.065Z,5.90
2023-01-21T14:21:35.681Z,5.80
2023-01-21T14:24:14.247Z,5.70
2023-01-21T14:27:08.906Z,5.50
2023-01-21T14:29:46.942Z,5.50
2023-01-21T14:32:17.415Z,5.40
2023-01-21T14:35:06.939Z,5.50
2023-01-21T14:37:57.296Z,5.20
2023-01-21T14:40:32.039Z,5.00
2023-01-21T14:42:59.780Z,5.00
2023-01-21T14:45:56.299Z,5.10
2023-01-21T14:48:35.736Z,5.00
2023-01-21T14:51:10.153Z,5.00
2023-01-21T14:53:52.459Z,5.00
2023-01-21T14:56:26.769Z,4.90
2023-01-21T14:59:03.571Z,5.00
2023-01-21T15:01:37.231Z,5.00
2023-01-21T15:04:15.527Z,5.00
2023-01-21T15:09:41.778Z,5.20
2023-01-21T15:12:17.815Z,5.10
2023-01-21T15:14:46.205Z,4.90
2023-01-21T15:17:46.176Z,4.70
2023-01-21T15:20:44.340Z,4.60
2023-01-21T15:23:28.661Z,4.50
2023-01-21T15:26:09.015Z,4.40
2023-01-21T15:28:45.354Z,4.30
2023-01-21T15:31:23.904Z,4.30
2023-01-21T15:33:56.877Z,4.30
2023-01-21T15:36:34.983Z,4.30
2023-01-21T15:39:17.736Z,4.30
2023-01-21T15:41:54.185Z,4.40
2023-01-21T15:44:38.292Z,4.40
2023-01-21T15:47:36.833Z,4.40
2023-01-21T15:50:27.926Z,4.30
2023-01-21T15:53:23.221Z,4.20
2023-01-21T15:56:02.313Z,4.00
2023-01-21T15:59:02.029Z,4.00
2023-01-21T16:01:37.467Z,3.90
2023-01-21T16:04:23.843Z,3.80
2023-01-21T16:07:11.847Z,3.80
2023-01-21T16:10:03.865Z,3.70
2023-01-21T16:12:47.959Z,3.60
2023-01-21T16:15:47.332Z,3.60
2023-01-21T16:19:00.850Z,3.60
2023-01-21T16:21:36.210Z,3.50
2023-01-21T16:24:13.210Z,3.40
2023-01-21T16:26:40.551Z,3.40
2023-01-21T16:29:15.429Z,3.40
2023-01-21T16:31:59.559Z,3.40
2023-01-21T16:34:40.677Z,3.40
2023-01-21T16:37:12.207Z,3.30
2023-01-21T16:39:41.016Z,3.30
2023-01-21T16:42:41.064Z,3.30
2023-01-21T16:45:14.531Z,3.30
2023-01-21T16:47:42.478Z,3.30
2023-01-21T16:50:21.152Z,3.30
2023-01-21T16:52:49.634Z,3.20
2023-01-21T16:55:28.191Z,3.20
2023-01-21T16:57:58.035Z,3.20
2023-01-21T17:00:31.774Z,3.10
2023-01-21T17:03:00.175Z,3.10
2023-01-21T17:05:33.891Z,3.00
2023-01-21T17:08:11.658Z,3.00
2023-01-21T17:10:52.330Z,2.90
2023-01-21T17:13:19.823Z,3.00
2023-01-21T17:15:58.360Z,2.90
2023-01-21T17:18:39.351Z,2.90
2023-01-21T17:21:08.934Z,2.80
2023-01-21T17:23:50.494Z,2.80
2023-01-21T17:26:24.116Z,2.80
2023-01-21T17:28:57.995Z,2.80
2023-01-21T17:31:35.667Z,2.80
2023-01-21T17:34:15.469Z,2.80
2023-01-21T17:36:44.881Z,2.80
2023-01-21T17:39:12.780Z,2.80
2023-01-21T17:41:42.688Z,2.90
2023-01-21T17:44:20.500Z,2.90
2023-01-21T17:46:52.838Z,2.90
2023-01-21T17:49:25.485Z,2.90
2023-01-21T17:51:56.811Z,2.90
2023-01-21T17:54:26.465Z,3.00
2023-01-21T17:56:56.962Z,3.00
2023-01-21T17:59:41.758Z,3.00
2023-01-21T18:02:13.102Z,3.00
2023-01-21T18:04:42.775Z,3.00
2023-01-21T18:07:25.725Z,3.00
2023-01-21T18:09:54.658Z,3.00
2023-01-21T18:12:22.007Z,3.00
2023-01-21T18:14:49.420Z,3.00
2023-01-21T18:17:23.478Z,3.00
2023-01-21T18:19:51.178Z,3.10
2023-01-21T18:22:36.431Z,3.10
2023-01-21T18:25:05.863Z,3.10
2023-01-21T18:27:33.151Z,3.10
2023-01-21T18:30:00.587Z,3.10
2023-01-21T18:32:28.022Z,3.10
2023-01-21T18:34:55.331Z,3.10
2023-01-21T18:37:22.551Z,3.10
2023-01-21T18:39:49.977Z,3.10
2023-01-21T18:42:18.318Z,3.10
2023-01-21T18:44:45.644Z,3.10
2023-01-21T18:47:18.062Z,3.10
2023-01-21T18:49:46.069Z,3.10
2023-01-21T18:52:18.556Z,3.10
2023-01-21T18:54:46.239Z,3.00
2023-01-21T18:57:21.428Z,3.00
2023-01-21T18:59:48.917Z,3.00
2023-01-21T19:02:20.881Z,3.00
2023-01-21T19:04:48.604Z,2.90
2023-01-21T19:07:17.664Z,2.90
2023-01-21T19:09:47.703Z,2.80
2023-01-21T19:12:18.633Z,2.90
2023-01-21T19:14:46.100Z,2.80
2023-01-21T19:17:14.839Z,2.80
2023-01-21T19:19:42.251Z,2.70
2023-01-21T19:22:16.328Z,2.70
2023-01-21T19:24:43.814Z,2.70
2023-01-21T19:27:17.362Z,2.70
2023-01-21T19:29:44.781Z,2.70
2023-01-21T19:32:14.856Z,2.70
2023-01-21T19:34:42.855Z,2.70
2023-01-21T19:37:15.260Z,2.70
2023-01-21T19:39:42.567Z,2.70
2023-01-21T19:42:15.493Z,2.70
2023-01-21T19:44:43.379Z,2.60
2023-01-21T19:47:19.417Z,2.60
2023-01-21T19:49:47.950Z,2.60
2023-01-21T19:52:15.454Z,2.60
2023-01-21T19:54:42.752Z,2.50
2023-01-21T19:57:14.640Z,2.50
2023-01-21T19:59:43.885Z,2.40
2023-01-21T20:02:14.222Z,2.50
2023-01-21T20:04:41.602Z,2.40
2023-01-21T20:07:14.163Z,2.50
2023-01-21T20:09:41.489Z,2.50
2023-01-21T20:12:12.565Z,2.50
2023-01-21T20:14:39.891Z,2.50
2023-01-21T20:17:11.449Z,2.50
2023-01-21T20:19:38.817Z,2.50
2023-01-21T20:22:06.138Z,2.50
2023-01-21T20:24:34.292Z,2.40
2023-01-21T20:27:05.220Z,2.40
2023-01-21T20:29:34.089Z,2.40
2023-01-21T20:32:01.474Z,2.30
2023-01-21T20:34:31.605Z,2.30
2023-01-21T20:36:59.505Z,2.30
2023-01-21T20:39:26.882Z,2.30
2023-01-21T20:41:54.210Z,2.30
2023-01-21T20:44:21.983Z,2.30
2023-01-21T20:46:49.318Z,2.20
2023-01-21T20:49:16.701Z,2.10
2023-01-21T20:51:43.880Z,2.00
2023-01-21T20:54:11.962Z,2.00
2023-01-21T20:56:39.234Z,1.90
2023-01-21T20:59:06.581Z,1.80
2023-01-21T21:01:35.066Z,1.80
2023-01-21T21:04:02.665Z,1.80
2023-01-21T21:06:29.995Z,1.70
2023-01-21T21:08:57.422Z,1.70
2023-01-21T21:11:24.854Z,1.70
2023-01-21T21:13:52.666Z,1.80
2023-01-21T21:16:32.089Z,1.80
2023-01-21T21:19:00.746Z,1.90
2023-01-21T21:21:28.612Z,1.90
2023-01-21T21:23:55.942Z,2.00
2023-01-21T21:26:25.479Z,1.90
2023-01-21T21:28:57.861Z,1.90
2023-01-21T21:31:26.707Z,1.90
2023-01-21T21:33:54.212Z,2.00
2023-01-21T21:36:24.765Z,2.00
2023-01-21T21:38:52.603Z,2.00
2023-01-21T21:41:43.311Z,2.00
2023-01-21T21:44:11.231Z,2.00
2023-01-21T21:46:57.458Z,2.00
2023-01-21T21:49:25.148Z,2.00
2023-01-21T21:51:52.567Z,2.10
2023-01-21T21:54:20.008Z,2.00
2023-01-21T21:56:47.969Z,2.10
2023-01-21T21:59:15.348Z,2.10
2023-01-21T22:01:43.859Z,2.10
2023-01-21T22:04:11.266Z,2.10
2023-01-21T22:06:38.900Z,2.10
2023-01-21T22:09:06.444Z,2.00
2023-01-21T22:11:34.113Z,2.00
2023-01-21T22:14:04.801Z,2.00
2023-01-21T22:16:32.714Z,2.00
2023-01-21T22:19:00.505Z,2.00
2023-01-21T22:21:33.382Z,1.90
2023-01-21T22:24:02.067Z,1.90
2023-01-21T22:26:29.999Z,1.80
2023-01-21T22:28:58.017Z,1.70
2023-01-21T22:31:28.313Z,1.60
2023-01-21T22:33:57.021Z,1.50
2023-01-21T22:36:26.271Z,1.40
2023-01-21T22:38:54.284Z,1.30
2023-01-21T22:41:23.588Z,1.20
2023-01-21T22:43:51.643Z,1.20
2023-01-21T22:46:24.425Z,1.10
2023-01-21T22:48:53.406Z,1.20
2023-01-21T22:51:22.328Z,1.20
2023-01-21T22:53:50.418Z,1.20
2023-01-21T22:56:21.174Z,1.20
2023-01-21T22:58:48.729Z,1.30
2023-01-21T23:01:25.399Z,1.30
2023-01-21T23:03:53.341Z,1.30
2023-01-21T23:06:21.070Z,1.30
2023-01-21T23:08:48.501Z,1.30
2023-01-21T23:11:17.183Z,1.30
2023-01-21T23:13:44.829Z,1.30
2023-01-21T23:16:15.160Z,1.40
2023-01-21T23:18:42.550Z,1.40
2023-01-21T23:21:18.733Z,1.50
2023-01-21T23:23:46.387Z,1.50
2023-01-21T23:26:14.733Z,1.50
2023-01-21T23:28:43.233Z,1.40
2023-01-21T23:31:16.535Z,1.30
2023-01-21T23:33:44.237Z,1.30
2023-01-21T23:36:13.742Z,1.30
2023-01-21T23:38:42.102Z,1.30
2023-01-21T23:41:12.531Z,1.30
2023-01-21T23:43:40.708Z,1.40
2023-01-21T23:46:10.999Z,1.40
2023-01-21T23:48:38.442Z,1.40
2023-01-21T23:51:07.827Z,1.40
2023-01-21T23:53:35.759Z,1.50
2023-01-21T23:56:07.835Z,1.40
2023-01-21T23:58:35.289Z,1.30
